createdAt,value
2022-10-05T00:02:14.963Z,22.57
2022-10-05T00:04:42.104Z,15.40
2022-10-05T00:07:10.500Z,25.47
2022-10-05T00:09:37.602Z,22.63
2022-10-05T00:12:31.090Z,22.60
2022-10-05T00:15:01.253Z,21.00
2022-10-05T00:17:29.780Z,25.57
2022-10-05T00:19:57.124Z,23.80
2022-10-05T00:22:25.671Z,27.00
2022-10-05T00:24:56.663Z,25.47
2022-10-05T00:27:27.871Z,28.40
2022-10-05T00:29:58.396Z,19.20
2022-10-05T00:32:25.516Z,25.90
2022-10-05T00:34:52.638Z,24.23
2022-10-05T00:37:19.727Z,28.40
2022-10-05T00:39:46.905Z,23.73
2022-10-05T00:42:20.192Z,21.50
2022-10-05T00:44:53.064Z,21.10
2022-10-05T00:47:32.140Z,20.03
2022-10-05T00:49:59.178Z,25.00
2022-10-05T00:52:26.224Z,24.23
2022-10-05T00:55:03.782Z,21.33
2022-10-05T00:57:38.269Z,23.73
2022-10-05T01:00:09.729Z,26.47
2022-10-05T01:02:55.715Z,23.97
2022-10-05T01:05:30.099Z,23.63
2022-10-05T01:08:03.111Z,24.07
2022-10-05T01:10:30.176Z,22.13
2022-10-05T01:12:57.216Z,23.70
2022-10-05T01:15:40.399Z,24.77
2022-10-05T01:18:07.475Z,22.27
2022-10-05T01:20:53.208Z,24.17
2022-10-05T01:23:35.699Z,23.73
2022-10-05T01:26:17.679Z,19.50
2022-10-05T01:28:44.759Z,25.77
2022-10-05T01:31:30.275Z,24.23
2022-10-05T01:33:57.360Z,25.97
2022-10-05T01:36:24.443Z,28.10
2022-10-05T01:39:22.320Z,25.33
2022-10-05T01:42:01.677Z,26.00
2022-10-05T01:44:41.775Z,22.03
2022-10-05T01:47:13.515Z,23.50
2022-10-05T01:49:56.037Z,29.37
2022-10-05T01:52:34.962Z,26.77
2022-10-05T01:55:13.912Z,23.53
2022-10-05T01:57:43.723Z,22.53
2022-10-05T02:00:15.007Z,25.60
2022-10-05T02:02:44.331Z,26.77
2022-10-05T02:05:11.435Z,19.37
2022-10-05T02:07:47.416Z,19.37
2022-10-05T02:10:14.483Z,24.00
2022-10-05T02:12:43.046Z,20.77
2022-10-05T02:15:15.615Z,20.00
2022-10-05T02:17:46.344Z,25.27
2022-10-05T02:20:15.790Z,25.50
2022-10-05T02:22:47.888Z,24.20
2022-10-05T02:25:16.700Z,23.17
2022-10-05T02:27:50.658Z,21.57
2022-10-05T02:30:19.044Z,20.70
2022-10-05T02:32:53.407Z,19.87
2022-10-05T02:35:22.162Z,21.33
2022-10-05T02:37:50.205Z,20.07
2022-10-05T02:40:32.840Z,22.47
2022-10-05T02:43:18.536Z,16.83
2022-10-05T02:46:07.110Z,21.63
2022-10-05T02:48:42.957Z,17.27
2022-10-05T02:51:16.494Z,18.60
2022-10-05T02:53:43.596Z,15.27
2022-10-05T02:56:16.593Z,22.30
2022-10-05T02:58:54.153Z,20.17
2022-10-05T03:01:41.646Z,23.33
2022-10-05T03:04:19.672Z,22.73
2022-10-05T03:07:07.010Z,21.93
2022-10-05T03:09:38.208Z,20.80
2022-10-05T03:12:11.469Z,20.70
2022-10-05T03:14:48.466Z,20.27
2022-10-05T03:17:23.050Z,17.60
2022-10-05T03:20:12.708Z,22.33
2022-10-05T03:22:50.689Z,24.27
2022-10-05T03:25:35.929Z,22.80
2022-10-05T03:28:07.875Z,22.80
2022-10-05T03:30:46.059Z,25.17
2022-10-05T03:33:15.939Z,24.20
2022-10-05T03:35:49.375Z,22.87
2022-10-05T03:38:26.408Z,19.00
2022-10-05T03:40:57.835Z,24.70
2022-10-05T03:43:43.498Z,26.40
2022-10-05T03:46:13.655Z,21.77
2022-10-05T03:48:47.000Z,23.57
2022-10-05T03:51:23.403Z,23.63
2022-10-05T03:53:53.713Z,22.87
2022-10-05T03:56:28.373Z,27.63
2022-10-05T03:58:58.263Z,28.33
2022-10-05T04:01:29.549Z,23.47
2022-10-05T04:04:00.145Z,23.00
2022-10-05T04:06:28.382Z,22.23
2022-10-05T04:09:00.413Z,23.30
2022-10-05T04:11:30.080Z,23.50
2022-10-05T04:14:01.667Z,24.97
2022-10-05T04:16:32.159Z,24.87
2022-10-05T04:19:22.601Z,28.23
2022-10-05T04:21:54.136Z,20.23
2022-10-05T04:24:47.678Z,25.70
2022-10-05T04:27:53.435Z,28.03
2022-10-05T04:30:22.223Z,22.37
2022-10-05T04:32:59.907Z,24.53
2022-10-05T04:35:32.735Z,25.57
2022-10-05T04:38:18.805Z,25.57
2022-10-05T04:41:04.761Z,24.60
2022-10-05T04:43:31.809Z,23.47
2022-10-05T04:46:10.205Z,21.77
2022-10-05T04:48:40.302Z,25.20
2022-10-05T04:51:20.469Z,20.03
2022-10-05T04:53:54.823Z,21.23
2022-10-05T04:56:45.454Z,19.27
2022-10-05T04:59:31.513Z,20.83
2022-10-05T05:02:06.594Z,22.37
2022-10-05T05:04:42.532Z,22.93
2022-10-05T05:07:28.427Z,20.80
2022-10-05T05:10:07.795Z,23.30
2022-10-05T05:12:34.842Z,28.37
2022-10-05T05:15:08.090Z,21.53
2022-10-05T05:17:44.050Z,26.77
2022-10-05T05:20:22.803Z,28.27
2022-10-05T05:23:05.271Z,24.53
2022-10-05T05:25:32.328Z,28.27
2022-10-05T05:28:05.738Z,27.10
2022-10-05T05:30:59.277Z,24.13
2022-10-05T05:33:33.204Z,29.63
2022-10-05T05:36:03.343Z,30.93
2022-10-05T05:38:42.768Z,24.37
2022-10-05T05:41:12.591Z,25.67
2022-10-05T05:44:00.797Z,31.10
2022-10-05T05:46:51.539Z,22.40
2022-10-05T05:49:22.971Z,27.53
2022-10-05T05:51:56.775Z,30.53
2022-10-05T05:54:28.111Z,30.37
2022-10-05T05:56:59.513Z,30.33
2022-10-05T05:59:55.894Z,27.97
2022-10-05T06:02:29.206Z,29.87
2022-10-05T06:04:59.443Z,30.17
2022-10-05T06:07:30.587Z,32.00
2022-10-05T06:10:13.235Z,32.67
2022-10-05T06:12:42.954Z,28.93
2022-10-05T06:15:17.832Z,32.07
2022-10-05T06:17:48.060Z,30.57
2022-10-05T06:20:34.079Z,32.20
2022-10-05T06:23:04.237Z,37.40
2022-10-05T06:25:41.448Z,39.60
2022-10-05T06:28:19.522Z,29.53
2022-10-05T06:30:46.656Z,38.00
2022-10-05T06:33:25.737Z,29.83
2022-10-05T06:35:58.743Z,31.40
2022-10-05T06:38:34.833Z,31.97
2022-10-05T06:41:10.847Z,35.93
2022-10-05T06:43:47.539Z,37.57
2022-10-05T06:46:30.285Z,36.13
2022-10-05T06:49:03.674Z,32.60
2022-10-05T06:51:36.822Z,30.77
2022-10-05T06:54:19.196Z,29.87
2022-10-05T06:56:51.974Z,38.60
2022-10-05T06:59:23.176Z,38.80
2022-10-05T07:01:50.651Z,40.60
2022-10-05T07:04:40.072Z,47.47
2022-10-05T07:07:25.587Z,51.27
2022-10-05T07:09:56.444Z,119.43
2022-10-05T07:12:35.640Z,156.87
2022-10-05T07:15:13.699Z,174.10
2022-10-05T07:18:04.110Z,127.83
2022-10-05T07:20:33.897Z,123.07
2022-10-05T07:23:19.752Z,86.70
2022-10-05T07:25:53.778Z,68.77
2022-10-05T07:28:37.641Z,47.63
2022-10-05T07:31:07.258Z,63.77
2022-10-05T07:33:34.309Z,52.13
2022-10-05T07:36:39.055Z,62.13
2022-10-05T07:39:11.382Z,49.20
2022-10-05T07:41:54.807Z,69.10
2022-10-05T07:44:33.232Z,44.70
2022-10-05T07:47:16.140Z,39.80
2022-10-05T07:49:59.537Z,34.40
2022-10-05T07:52:34.651Z,28.30
2022-10-05T07:55:22.627Z,30.43
2022-10-05T07:57:52.765Z,29.13
2022-10-05T08:00:20.928Z,30.43
2022-10-05T08:02:48.987Z,29.07
2022-10-05T08:05:24.979Z,32.30
2022-10-05T08:07:56.052Z,25.30
2022-10-05T08:10:23.114Z,30.37
2022-10-05T08:13:09.091Z,30.50
2022-10-05T08:15:40.106Z,30.63
2022-10-05T08:18:38.075Z,32.60
2022-10-05T08:21:11.718Z,28.17
2022-10-05T08:23:43.216Z,21.60
2022-10-05T08:26:25.374Z,23.53
2022-10-05T08:28:59.976Z,31.33
2022-10-05T08:31:29.928Z,23.80
2022-10-05T08:34:07.970Z,28.83
2022-10-05T08:36:41.084Z,32.27
2022-10-05T08:39:13.568Z,34.47
2022-10-05T08:41:58.165Z,23.43
2022-10-05T08:44:35.027Z,28.70
2022-10-05T08:47:08.160Z,25.77
2022-10-05T08:49:47.250Z,26.33
2022-10-05T08:52:43.982Z,24.33
2022-10-05T08:55:11.032Z,20.13
2022-10-05T08:57:38.196Z,24.80
2022-10-05T09:00:14.212Z,24.63
2022-10-05T09:03:01.613Z,20.33
2022-10-05T09:05:37.721Z,22.40
2022-10-05T09:08:04.814Z,17.10
2022-10-05T09:10:31.863Z,19.57
2022-10-05T09:13:42.466Z,15.10
2022-10-05T09:16:28.141Z,17.00
2022-10-05T09:19:10.564Z,18.23
2022-10-05T09:21:43.217Z,18.30
2022-10-05T09:24:13.579Z,16.73
2022-10-05T09:26:59.571Z,19.00
2022-10-05T09:29:45.396Z,20.77
2022-10-05T09:32:31.000Z,18.97
2022-10-05T09:35:16.573Z,16.07
2022-10-05T09:38:07.069Z,16.40
2022-10-05T09:40:56.731Z,16.40
2022-10-05T09:43:29.553Z,19.47
2022-10-05T09:46:02.654Z,17.07
2022-10-05T09:48:29.747Z,15.10
2022-10-05T09:51:15.562Z,19.47
2022-10-05T09:53:48.657Z,16.33
2022-10-05T09:56:34.751Z,21.07
2022-10-05T09:59:12.618Z,18.23
2022-10-05T10:01:58.443Z,21.77
2022-10-05T10:04:41.288Z,28.30
2022-10-05T10:07:11.397Z,18.40
2022-10-05T10:10:01.475Z,21.93
2022-10-05T10:12:33.523Z,24.27
2022-10-05T10:15:06.671Z,23.80
2022-10-05T10:17:52.110Z,25.73
2022-10-05T10:20:38.041Z,24.43
2022-10-05T10:23:08.313Z,31.47
2022-10-05T10:25:53.737Z,30.97
2022-10-05T10:28:23.867Z,24.47
2022-10-05T10:31:09.805Z,22.40
2022-10-05T10:33:52.314Z,25.70
2022-10-05T10:36:33.090Z,25.70
2022-10-05T10:39:00.147Z,26.33
2022-10-05T10:41:50.113Z,28.43
2022-10-05T10:44:20.118Z,28.27
2022-10-05T10:46:50.367Z,25.80
2022-10-05T10:49:26.736Z,27.80
2022-10-05T10:52:02.520Z,28.03
2022-10-05T10:54:29.653Z,25.57
2022-10-05T10:57:20.125Z,25.73
2022-10-05T10:59:53.023Z,27.60
2022-10-05T11:02:33.281Z,28.47
2022-10-05T11:05:27.360Z,27.77
2022-10-05T11:07:54.414Z,24.37
2022-10-05T11:10:21.579Z,28.10
2022-10-05T11:13:00.593Z,25.97
2022-10-05T11:15:49.264Z,31.43
2022-10-05T11:18:34.737Z,34.13
2022-10-05T11:21:20.797Z,28.77
2022-10-05T11:23:57.083Z,30.40
2022-10-05T11:26:24.140Z,29.17
2022-10-05T11:29:01.510Z,25.10
2022-10-05T11:31:31.530Z,25.67
2022-10-05T11:34:08.002Z,24.53
2022-10-05T11:36:47.559Z,27.70
2022-10-05T11:39:30.485Z,30.13
2022-10-05T11:42:00.380Z,27.17
2022-10-05T11:44:46.387Z,29.87
2022-10-05T11:47:25.237Z,29.97
2022-10-05T11:50:18.728Z,22.50
2022-10-05T11:52:49.160Z,24.30
2022-10-05T11:55:22.762Z,19.30
2022-10-05T11:57:49.837Z,19.70
2022-10-05T12:00:19.060Z,23.43
2022-10-05T12:03:24.654Z,20.77
2022-10-05T12:06:10.399Z,24.67
2022-10-05T12:08:50.872Z,22.33
2022-10-05T12:11:37.054Z,18.30
2022-10-05T12:14:04.200Z,22.53
2022-10-05T12:16:37.276Z,20.73
2022-10-05T12:19:07.455Z,22.07
2022-10-05T12:21:38.254Z,22.90
2022-10-05T12:24:09.291Z,18.50
2022-10-05T12:26:39.694Z,18.53
2022-10-05T12:29:07.835Z,20.30
2022-10-05T12:31:53.439Z,19.20
2022-10-05T12:34:23.306Z,18.17
2022-10-05T12:37:05.213Z,20.63
2022-10-05T12:40:06.216Z,21.90
2022-10-05T12:42:47.584Z,18.70
2022-10-05T12:45:32.850Z,17.97
2022-10-05T12:48:06.915Z,21.13
2022-10-05T12:50:42.533Z,19.37
2022-10-05T12:53:22.436Z,19.17
2022-10-05T12:56:08.103Z,21.63
2022-10-05T12:58:38.699Z,14.73
2022-10-05T13:01:05.794Z,19.70
2022-10-05T13:03:41.695Z,20.00
2022-10-05T13:06:29.061Z,19.00
2022-10-05T13:09:22.369Z,16.13
2022-10-05T13:11:50.944Z,16.03
2022-10-05T13:14:36.868Z,16.17
2022-10-05T13:17:22.759Z,15.67
2022-10-05T13:20:02.428Z,15.57
2022-10-05T13:22:32.826Z,18.63
2022-10-05T13:25:21.154Z,17.87
2022-10-05T13:28:03.688Z,14.77
2022-10-05T13:30:31.050Z,20.23
2022-10-05T13:33:01.347Z,14.40
2022-10-05T13:35:35.484Z,14.20
2022-10-05T13:38:08.640Z,16.87
2022-10-05T13:40:39.925Z,13.33
2022-10-05T13:43:14.081Z,17.23
2022-10-05T13:46:06.414Z,15.60
2022-10-05T13:48:36.608Z,15.17
2022-10-05T13:51:09.315Z,16.43
2022-10-05T13:53:48.560Z,19.93
2022-10-05T13:56:22.062Z,18.73
2022-10-05T13:58:49.958Z,14.60
2022-10-05T14:01:22.297Z,14.07
2022-10-05T14:04:06.112Z,16.07
2022-10-05T14:06:34.955Z,22.17
2022-10-05T14:09:02.107Z,18.80
2022-10-05T14:11:36.091Z,17.03
2022-10-05T14:14:38.647Z,17.97
2022-10-05T14:17:13.923Z,14.33
2022-10-05T14:19:45.905Z,15.63
2022-10-05T14:22:22.375Z,17.10
2022-10-05T14:24:56.767Z,19.07
2022-10-05T14:27:25.817Z,16.20
2022-10-05T14:29:55.326Z,19.23
2022-10-05T14:32:23.838Z,15.23
2022-10-05T14:35:01.222Z,20.37
2022-10-05T14:37:43.803Z,15.10
2022-10-05T14:40:31.177Z,15.27
2022-10-05T14:42:59.212Z,18.50
2022-10-05T14:45:30.039Z,16.53
2022-10-05T14:48:00.153Z,17.50
2022-10-05T14:50:31.452Z,20.97
2022-10-05T14:53:17.371Z,16.27
2022-10-05T14:55:44.432Z,19.60
2022-10-05T14:58:30.091Z,19.50
2022-10-05T15:01:02.685Z,13.83
2022-10-05T15:03:35.723Z,19.13
2022-10-05T15:06:04.515Z,22.33
2022-10-05T15:08:31.611Z,17.97
2022-10-05T15:11:06.303Z,13.83
2022-10-05T15:13:34.979Z,17.37
2022-10-05T15:16:07.547Z,17.47
2022-10-05T15:18:37.727Z,12.60
2022-10-05T15:21:16.743Z,13.50
2022-10-05T15:23:50.128Z,13.37
2022-10-05T15:26:26.577Z,15.03
2022-10-05T15:28:57.967Z,15.73
2022-10-05T15:31:28.175Z,13.97
2022-10-05T15:34:30.659Z,15.20
2022-10-05T15:37:07.167Z,13.10
2022-10-05T15:39:43.692Z,12.47
2022-10-05T15:42:12.916Z,13.83
2022-10-05T15:44:58.683Z,15.13
2022-10-05T15:47:40.489Z,12.37
2022-10-05T15:50:20.935Z,14.53
2022-10-05T15:52:52.858Z,16.17
2022-10-05T15:55:28.978Z,11.80
2022-10-05T15:58:19.540Z,18.27
2022-10-05T16:00:48.349Z,14.50
2022-10-05T16:03:23.365Z,14.83
2022-10-05T16:06:14.853Z,15.27
2022-10-05T16:08:56.174Z,17.63
2022-10-05T16:11:32.443Z,18.20
2022-10-05T16:14:14.561Z,19.03
2022-10-05T16:16:52.723Z,18.73
2022-10-05T16:19:27.884Z,14.07
2022-10-05T16:22:14.122Z,19.43
2022-10-05T16:24:41.313Z,21.17
2022-10-05T16:27:11.458Z,17.77
2022-10-05T16:29:57.498Z,21.30
2022-10-05T16:32:34.404Z,21.50
2022-10-05T16:35:10.854Z,20.53
2022-10-05T16:37:37.903Z,17.87
2022-10-05T16:40:23.231Z,18.23
2022-10-05T16:43:01.297Z,20.53
2022-10-05T16:45:28.448Z,19.90
2022-10-05T16:48:01.400Z,16.03
2022-10-05T16:50:40.271Z,21.27
2022-10-05T16:53:15.028Z,19.40
2022-10-05T16:55:44.467Z,24.10
2022-10-05T16:58:17.878Z,17.87
2022-10-05T17:00:53.836Z,23.37
2022-10-05T17:03:40.031Z,14.63
2022-10-05T17:06:07.179Z,19.13
2022-10-05T17:08:34.252Z,22.17
2022-10-05T17:11:07.048Z,20.07
2022-10-05T17:13:41.016Z,20.97
2022-10-05T17:16:11.150Z,21.83
2022-10-05T17:18:38.270Z,21.20
2022-10-05T17:21:27.637Z,21.03
2022-10-05T17:23:56.828Z,22.97
2022-10-05T17:26:23.928Z,20.87
2022-10-05T17:29:10.011Z,20.47
2022-10-05T17:31:55.582Z,21.73
2022-10-05T17:34:22.636Z,17.87
2022-10-05T17:36:51.303Z,18.20
2022-10-05T17:39:20.460Z,21.20
2022-10-05T17:41:47.927Z,23.27
2022-10-05T17:44:21.008Z,20.10
2022-10-05T17:46:49.664Z,23.50
2022-10-05T17:49:34.890Z,16.50
2022-10-05T17:52:22.032Z,17.27
2022-10-05T17:55:09.363Z,21.77
2022-10-05T17:57:37.093Z,22.80
2022-10-05T18:00:29.320Z,22.67
2022-10-05T18:02:58.243Z,18.83
2022-10-05T18:05:27.686Z,19.70
2022-10-05T18:08:13.141Z,21.07
2022-10-05T18:11:00.276Z,19.17
2022-10-05T18:13:45.444Z,21.93
2022-10-05T18:16:13.325Z,21.90
2022-10-05T18:18:43.234Z,15.67
2022-10-05T18:21:20.423Z,23.43
2022-10-05T18:23:47.510Z,16.80
2022-10-05T18:26:33.653Z,17.73
2022-10-05T18:29:36.887Z,15.00
2022-10-05T18:32:08.754Z,20.33
2022-10-05T18:34:55.651Z,17.03
2022-10-05T18:37:31.602Z,21.03
2022-10-05T18:40:15.403Z,18.20
2022-10-05T18:43:01.974Z,15.23
2022-10-05T18:45:32.249Z,15.50
2022-10-05T18:48:02.355Z,16.30
2022-10-05T18:50:48.071Z,18.33
2022-10-05T18:53:15.117Z,20.73
2022-10-05T18:55:45.177Z,18.77
2022-10-05T18:58:18.958Z,19.27
2022-10-05T19:00:54.185Z,15.97
2022-10-05T19:03:27.266Z,17.07
2022-10-05T19:05:57.453Z,18.57
2022-10-05T19:08:27.856Z,18.87
2022-10-05T19:11:02.171Z,13.97
2022-10-05T19:13:44.282Z,21.23
2022-10-05T19:16:14.437Z,16.90
2022-10-05T19:18:41.603Z,17.90
2022-10-05T19:21:31.988Z,17.77
2022-10-05T19:24:08.037Z,15.53
2022-10-05T19:26:38.287Z,14.70
2022-10-05T19:29:19.853Z,16.77
2022-10-05T19:31:49.260Z,18.03
2022-10-05T19:34:42.709Z,19.37
2022-10-05T19:37:14.041Z,17.53
2022-10-05T19:39:48.836Z,16.00
2022-10-05T19:42:19.002Z,20.73
2022-10-05T19:45:00.216Z,15.43
2022-10-05T19:47:40.265Z,14.90
2022-10-05T19:50:27.019Z,14.70
2022-10-05T19:53:03.965Z,11.67
2022-10-05T19:55:37.209Z,16.23
2022-10-05T19:58:16.961Z,15.60
2022-10-05T20:00:45.804Z,17.80
2022-10-05T20:03:23.379Z,15.60
2022-10-05T20:05:50.511Z,16.87
2022-10-05T20:08:19.156Z,13.03
2022-10-05T20:11:04.596Z,12.63
2022-10-05T20:13:35.001Z,15.83
2022-10-05T20:16:37.798Z,15.40
2022-10-05T20:19:36.149Z,12.83
2022-10-05T20:22:21.998Z,16.03
2022-10-05T20:24:50.711Z,16.30
2022-10-05T20:27:38.732Z,15.10
2022-10-05T20:30:06.639Z,14.93
2022-10-05T20:32:33.986Z,13.33
2022-10-05T20:35:01.190Z,17.50
2022-10-05T20:37:28.283Z,12.17
2022-10-05T20:39:55.351Z,13.77
2022-10-05T20:42:23.831Z,15.60
2022-10-05T20:44:56.542Z,12.43
2022-10-05T20:47:24.605Z,15.20
2022-10-05T20:49:53.339Z,15.23
2022-10-05T20:52:20.437Z,14.07
2022-10-05T20:54:47.994Z,13.87
2022-10-05T20:57:15.103Z,13.80
2022-10-05T20:59:42.248Z,15.07
2022-10-05T21:02:09.887Z,14.03
2022-10-05T21:04:41.550Z,13.13
2022-10-05T21:07:09.095Z,15.10
2022-10-05T21:09:38.370Z,11.47
2022-10-05T21:12:05.607Z,16.00
2022-10-05T21:14:34.384Z,19.27
2022-10-05T21:17:02.136Z,13.67
2022-10-05T21:19:29.560Z,12.77
2022-10-05T21:21:59.055Z,14.27
2022-10-05T21:24:26.318Z,14.50
2022-10-05T21:26:56.777Z,14.97
2022-10-05T21:29:23.912Z,14.20
2022-10-05T21:31:51.169Z,17.63
2022-10-05T21:34:18.350Z,13.87
2022-10-05T21:36:45.504Z,13.70
2022-10-05T21:39:12.604Z,13.37
2022-10-05T21:41:39.751Z,14.33
2022-10-05T21:44:06.974Z,19.27
2022-10-05T21:46:35.935Z,13.63
2022-10-05T21:49:03.186Z,13.57
2022-10-05T21:51:30.344Z,13.47
2022-10-05T21:53:58.833Z,14.70
2022-10-05T21:56:28.875Z,13.70
2022-10-05T21:58:55.964Z,14.67
2022-10-05T22:01:23.311Z,17.33
2022-10-05T22:03:50.476Z,16.00
2022-10-05T22:06:17.558Z,14.70
2022-10-05T22:08:44.648Z,16.50
2022-10-05T22:11:13.399Z,16.67
2022-10-05T22:13:47.997Z,13.10
2022-10-05T22:16:16.126Z,19.67
2022-10-05T22:18:43.466Z,17.67
2022-10-05T22:21:12.102Z,13.73
2022-10-05T22:23:42.775Z,17.30
2022-10-05T22:26:11.478Z,19.17
2022-10-05T22:28:40.202Z,18.07
2022-10-05T22:31:08.400Z,19.40
2022-10-05T22:33:36.957Z,18.63
2022-10-05T22:36:04.907Z,20.50
2022-10-05T22:38:33.207Z,18.67
2022-10-05T22:41:00.459Z,19.37
2022-10-05T22:43:27.690Z,19.60
2022-10-05T22:45:54.958Z,19.07
2022-10-05T22:48:22.419Z,17.27
2022-10-05T22:50:49.696Z,19.13
2022-10-05T22:53:16.799Z,16.37
2022-10-05T22:55:43.944Z,21.07
2022-10-05T22:58:11.137Z,20.97
2022-10-05T23:00:57.592Z,17.70
2022-10-05T23:03:25.414Z,16.57
2022-10-05T23:06:05.839Z,9.27
2022-10-05T23:08:33.832Z,10.20
2022-10-05T23:11:04.636Z,9.80
2022-10-05T23:13:31.892Z,10.20
2022-10-05T23:15:58.977Z,12.37
2022-10-05T23:18:26.661Z,10.07
2022-10-05T23:20:57.165Z,9.93
2022-10-05T23:23:25.427Z,7.47
2022-10-05T23:25:52.619Z,7.03
2022-10-05T23:28:19.743Z,5.50
2022-10-05T23:30:46.940Z,2.63
2022-10-05T23:33:14.135Z,3.73
2022-10-05T23:35:41.196Z,2.73
2022-10-05T23:38:08.283Z,2.97
2022-10-05T23:40:35.414Z,2.83
2022-10-05T23:43:02.558Z,6.17
2022-10-05T23:45:29.697Z,4.27
2022-10-05T23:47:56.777Z,5.57
2022-10-05T23:50:25.106Z,6.13
2022-10-05T23:52:52.173Z,3.93
2022-10-05T23:55:19.230Z,5.20
2022-10-05T23:57:46.298Z,6.97
